Sunset Island, Florida
Current Conditions -  °F | °C
As of 12:53 AM on Sunday 23 Nov 2014 (Local Time) from KMIA Reporting Station
Broken Clouds Broken Clouds  
Wind Chill: 77°   Ceiling: 2500
Heat Index: 78°   Visibility: 9mi
Dew Point: 72°   Wind: 18mph
Humidity: 84%   Direction: 110°ESE
Pressure: 30.05"   Gusts: 25mph
Location:  25.8181°N, 80.1301°W
Report Text: KMIA 230553Z 11016G22KT 9SM FEW019 BKN025 BKN040 25/22 A3005 RMK AO2 SLP176 60000 T02500222 10256 20250 58012
Loading
Personal Weather Stations






























Interactive Weather Map New forecast layout! Learn more

10-Day Weather Forecast

Advertisements
Track Severe Weather on mobile